sensor_id;sensor_type;location;lat;lon;timestamp;pressure;altitude;pressure_sealevel;temperature;humidity
64827;BME280;51265;53.972;12.286;2023-12-20T00:00:02;100162.00;;;4.31;100.00
64827;BME280;51265;53.972;12.286;2023-12-20T00:02:31;100171.53;;;4.34;100.00
64827;BME280;51265;53.972;12.286;2023-12-20T00:04:57;100161.72;;;4.38;100.00
64827;BME280;51265;53.972;12.286;2023-12-20T00:07:23;100153.28;;;4.39;100.00
64827;BME280;51265;53.972;12.286;2023-12-20T00:09:50;100151.38;;;4.35;100.00
64827;BME280;51265;53.972;12.286;2023-12-20T00:12:16;100148.91;;;4.33;100.00
64827;BME280;51265;53.972;12.286;2023-12-20T00:14:42;100163.03;;;4.25;100.00
64827;BME280;51265;53.972;12.286;2023-12-20T00:17:09;100151.84;;;4.21;100.00
64827;BME280;51265;53.972;12.286;2023-12-20T00:19:35;100144.78;;;4.20;100.00
64827;BME280;51265;53.972;12.286;2023-12-20T00:22:01;100148.84;;;4.13;100.00
64827;BME280;51265;53.972;12.286;2023-12-20T00:24:28;100141.75;;;4.07;100.00
64827;BME280;51265;53.972;12.286;2023-12-20T00:26:54;100148.81;;;4.03;100.00
64827;BME280;51265;53.972;12.286;2023-12-20T00:29:20;100144.69;;;4.00;100.00
64827;BME280;51265;53.972;12.286;2023-12-20T00:31:46;100146.09;;;4.08;100.00
64827;BME280;51265;53.972;12.286;2023-12-20T00:34:12;100137.91;;;4.03;100.00
64827;BME280;51265;53.972;12.286;2023-12-20T00:36:38;100127.31;;;4.06;100.00
64827;BME280;51265;53.972;12.286;2023-12-20T00:39:05;100124.28;;;3.97;100.00
64827;BME280;51265;53.972;12.286;2023-12-20T00:41:32;100124.00;;;4.04;100.00
64827;BME280;51265;53.972;12.286;2023-12-20T00:43:59;100125.63;;;4.00;100.00
64827;BME280;51265;53.972;12.286;2023-12-20T00:46:25;100122.63;;;3.96;100.00
64827;BME280;51265;53.972;12.286;2023-12-20T00:48:51;100117.16;;;3.91;100.00
64827;BME280;51265;53.972;12.286;2023-12-20T00:51:17;100125.31;;;3.91;100.00
64827;BME280;51265;53.972;12.286;2023-12-20T00:53:43;100116.06;;;3.92;100.00
64827;BME280;51265;53.972;12.286;2023-12-20T00:56:10;100128.03;;;3.86;100.00
64827;BME280;51265;53.972;12.286;2023-12-20T00:58:36;100115.44;;;3.75;100.00
64827;BME280;51265;53.972;12.286;2023-12-20T01:01:02;100120.38;;;3.78;100.00
64827;BME280;51265;53.972;12.286;2023-12-20T01:03:29;100127.97;;;3.76;100.00
64827;BME280;51265;53.972;12.286;2023-12-20T01:05:55;100123.09;;;3.73;100.00
64827;BME280;51265;53.972;12.286;2023-12-20T01:08:21;100118.97;;;3.70;100.00
64827;BME280;51265;53.972;12.286;2023-12-20T01:10:48;100110.00;;;3.75;100.00
64827;BME280;51265;53.972;12.286;2023-12-20T01:13:14;100110.81;;;3.75;100.00
64827;BME280;51265;53.972;12.286;2023-12-20T01:15:40;100110.53;;;3.72;100.00
64827;BME280;51265;53.972;12.286;2023-12-20T01:18:07;100107.03;;;3.77;100.00
64827;BME280;51265;53.972;12.286;2023-12-20T01:20:33;100104.25;;;3.71;100.00
64827;BME280;51265;53.972;12.286;2023-12-20T01:22:59;100097.72;;;3.67;100.00
64827;BME280;51265;53.972;12.286;2023-12-20T01:25:26;100104.53;;;3.65;100.00
64827;BME280;51265;53.972;12.286;2023-12-20T01:27:52;100098.56;;;3.68;100.00
64827;BME280;51265;53.972;12.286;2023-12-20T01:30:18;100096.38;;;3.70;100.00
64827;BME280;51265;53.972;12.286;2023-12-20T01:32:45;100100.19;;;3.69;100.00
64827;BME280;51265;53.972;12.286;2023-12-20T01:35:11;100102.94;;;3.74;100.00
64827;BME280;51265;53.972;12.286;2023-12-20T01:37:38;100091.50;;;3.77;100.00
64827;BME280;51265;53.972;12.286;2023-12-20T01:40:05;100092.03;;;3.74;100.00
64827;BME280;51265;53.972;12.286;2023-12-20T01:42:31;100097.72;;;3.67;100.00
64827;BME280;51265;53.972;12.286;2023-12-20T01:44:58;100101.28;;;3.73;100.00
64827;BME280;51265;53.972;12.286;2023-12-20T01:47:24;100095.28;;;3.76;100.00
64827;BME280;51265;53.972;12.286;2023-12-20T01:49:50;100083.88;;;3.79;100.00
64827;BME280;51265;53.972;12.286;2023-12-20T01:52:17;100088.22;;;3.75;100.00
64827;BME280;51265;53.972;12.286;2023-12-20T01:54:43;100082.75;;;3.70;100.00
64827;BME280;51265;53.972;12.286;2023-12-20T01:57:10;100084.38;;;3.71;100.00
64827;BME280;51265;53.972;12.286;2023-12-20T01:59:39;100075.41;;;3.75;100.00
64827;BME280;51265;53.972;12.286;2023-12-20T02:02:07;100077.38;;;3.85;100.00
64827;BME280;51265;53.972;12.286;2023-12-20T02:04:33;100077.09;;;3.92;100.00
64827;BME280;51265;53.972;12.286;2023-12-20T02:07:00;100074.13;;;3.98;100.00
64827;BME280;51265;53.972;12.286;2023-12-20T02:09:27;100070.88;;;4.07;100.00
64827;BME280;51265;53.972;12.286;2023-12-20T02:11:54;100064.91;;;4.10;100.00
64827;BME280;51265;53.972;12.286;2023-12-20T02:14:20;100049.34;;;4.05;100.00
64827;BME280;51265;53.972;12.286;2023-12-20T02:16:46;100052.63;;;4.07;100.00
64827;BME280;51265;53.972;12.286;2023-12-20T02:19:15;100045.84;;;4.10;100.00
64827;BME280;51265;53.972;12.286;2023-12-20T02:21:43;100037.09;;;4.08;100.00
64827;BME280;51265;53.972;12.286;2023-12-20T02:24:09;100032.69;;;3.96;100.00
64827;BME280;51265;53.972;12.286;2023-12-20T02:26:35;100026.72;;;3.94;100.00
64827;BME280;51265;53.972;12.286;2023-12-20T02:29:02;100026.72;;;3.94;100.00
64827;BME280;51265;53.972;12.286;2023-12-20T02:31:28;100035.69;;;3.85;100.00
64827;BME280;51265;53.972;12.286;2023-12-20T02:33:54;100028.28;;;3.75;100.00
64827;BME280;51265;53.972;12.286;2023-12-20T02:36:20;100032.13;;;3.79;100.00
64827;BME280;51265;53.972;12.286;2023-12-20T02:38:46;100029.41;;;3.79;100.00
64827;BME280;51265;53.972;12.286;2023-12-20T02:41:13;100016.88;;;3.78;100.00
64827;BME280;51265;53.972;12.286;2023-12-20T02:43:40;100013.63;;;3.86;100.00
64827;BME280;51265;53.972;12.286;2023-12-20T02:46:06;100005.97;;;3.88;100.00
64827;BME280;51265;53.972;12.286;2023-12-20T02:48:32;100015.81;;;3.94;100.00
64827;BME280;51265;53.972;12.286;2023-12-20T02:50:58;100007.13;;;4.03;100.00
64827;BME280;51265;53.972;12.286;2023-12-20T02:53:25;100010.38;;;4.05;100.00
64827;BME280;51265;53.972;12.286;2023-12-20T02:55:51;99996.78;;;4.10;100.00
64827;BME280;51265;53.972;12.286;2023-12-20T02:58:17;99997.31;;;4.17;100.00
64827;BME280;51265;53.972;12.286;2023-12-20T03:00:43;99985.34;;;4.23;100.00
64827;BME280;51265;53.972;12.286;2023-12-20T03:03:10;99985.84;;;4.25;100.00
64827;BME280;51265;53.972;12.286;2023-12-20T03:05:36;99984.53;;;4.22;100.00
64827;BME280;51265;53.972;12.286;2023-12-20T03:08:02;99976.06;;;4.24;100.00
64827;BME280;51265;53.972;12.286;2023-12-20T03:10:28;99967.06;;;4.29;100.00
64827;BME280;51265;53.972;12.286;2023-12-20T03:12:54;99968.41;;;4.36;100.00
64827;BME280;51265;53.972;12.286;2023-12-20T03:15:20;99957.50;;;4.26;100.00
64827;BME280;51265;53.972;12.286;2023-12-20T03:17:49;99945.53;;;4.32;100.00
64827;BME280;51265;53.972;12.286;2023-12-20T03:20:15;99943.31;;;4.34;100.00
64827;BME280;51265;53.972;12.286;2023-12-20T03:22:41;99933.00;;;4.31;100.00
64827;BME280;51265;53.972;12.286;2023-12-20T03:25:08;99933.53;;;4.28;100.00
64827;BME280;51265;53.972;12.286;2023-12-20T03:27:37;99924.78;;;4.26;100.00
64827;BME280;51265;53.972;12.286;2023-12-20T03:30:05;99932.44;;;4.24;100.00
64827;BME280;51265;53.972;12.286;2023-12-20T03:32:32;99930.53;;;4.30;100.00
64827;BME280;51265;53.972;12.286;2023-12-20T03:34:58;99923.16;;;4.30;100.00
64827;BME280;51265;53.972;12.286;2023-12-20T03:37:24;99923.97;;;4.36;100.00
64827;BME280;51265;53.972;12.286;2023-12-20T03:39:50;99913.38;;;4.19;100.00
64827;BME280;51265;53.972;12.286;2023-12-20T03:42:16;99899.72;;;4.14;100.00
64827;BME280;51265;53.972;12.286;2023-12-20T03:44:43;99900.84;;;4.08;100.00
64827;BME280;51265;53.972;12.286;2023-12-20T03:47:09;99896.19;;;4.08;100.00
64827;BME280;51265;53.972;12.286;2023-12-20T03:49:35;99881.22;;;4.06;100.00
64827;BME280;51265;53.972;12.286;2023-12-20T03:52:03;99891.56;;;4.19;100.00
64827;BME280;51265;53.972;12.286;2023-12-20T03:54:29;99881.75;;;4.23;100.00
64827;BME280;51265;53.972;12.286;2023-12-20T03:56:55;99889.91;;;4.18;100.00
64827;BME280;51265;53.972;12.286;2023-12-20T03:59:22;99902.47;;;4.09;100.00
64827;BME280;51265;53.972;12.286;2023-12-20T04:01:48;99902.47;;;4.09;100.00
64827;BME280;51265;53.972;12.286;2023-12-20T04:04:14;99897.56;;;4.16;100.00
64827;BME280;51265;53.972;12.286;2023-12-20T04:06:40;99892.94;;;4.27;100.00
64827;BME280;51265;53.972;12.286;2023-12-20T04:09:06;99891.53;;;4.29;100.00
64827;BME280;51265;53.972;12.286;2023-12-20T04:11:35;99887.16;;;4.33;100.00
64827;BME280;51265;53.972;12.286;2023-12-20T04:14:02;99879.81;;;4.29;100.00
64827;BME280;51265;53.972;12.286;2023-12-20T04:16:28;99879.53;;;4.30;100.00
64827;BME280;51265;53.972;12.286;2023-12-20T04:18:54;99882.25;;;4.40;100.00
64827;BME280;51265;53.972;12.286;2023-12-20T04:21:20;99881.16;;;4.41;100.00
64827;BME280;51265;53.972;12.286;2023-12-20T04:23:47;99867.53;;;4.41;100.00
64827;BME280;51265;53.972;12.286;2023-12-20T04:26:13;99871.91;;;4.47;100.00
64827;BME280;51265;53.972;12.286;2023-12-20T04:28:39;99859.88;;;4.54;100.00
64827;BME280;51265;53.972;12.286;2023-12-20T04:31:05;99866.16;;;4.44;100.00
64827;BME280;51265;53.972;12.286;2023-12-20T04:33:31;99858.84;;;4.29;100.00
64827;BME280;51265;53.972;12.286;2023-12-20T04:35:57;99853.34;;;4.44;100.00
64827;BME280;51265;53.972;12.286;2023-12-20T04:38:23;99850.59;;;4.55;100.00
64827;BME280;51265;53.972;12.286;2023-12-20T04:40:50;99843.25;;;4.45;100.00
64827;BME280;51265;53.972;12.286;2023-12-20T04:43:16;99847.38;;;4.32;100.00
64827;BME280;51265;53.972;12.286;2023-12-20T04:45:43;99846.31;;;4.28;100.00
64827;BME280;51265;53.972;12.286;2023-12-20T04:48:09;99850.63;;;4.34;100.00
64827;BME280;51265;53.972;12.286;2023-12-20T04:50:35;99851.22;;;4.31;100.00
64827;BME280;51265;53.972;12.286;2023-12-20T04:53:01;99831.56;;;4.29;100.00
64827;BME280;51265;53.972;12.286;2023-12-20T04:55:27;99830.75;;;4.29;100.00
64827;BME280;51265;53.972;12.286;2023-12-20T04:57:53;99839.19;;;4.37;100.00
64827;BME280;51265;53.972;12.286;2023-12-20T05:00:20;99820.94;;;4.33;100.00
64827;BME280;51265;53.972;12.286;2023-12-20T05:02:46;99826.09;;;4.39;100.00
64827;BME280;51265;53.972;12.286;2023-12-20T05:05:13;99820.38;;;4.36;100.00
64827;BME280;51265;53.972;12.286;2023-12-20T05:07:41;99819.00;;;4.43;100.00
64827;BME280;51265;53.972;12.286;2023-12-20T05:10:07;99816.81;;;4.40;100.00
64827;BME280;51265;53.972;12.286;2023-12-20T05:12:34;99813.56;;;4.43;100.00
64827;BME280;51265;53.972;12.286;2023-12-20T05:15:00;99818.19;;;4.38;100.00
64827;BME280;51265;53.972;12.286;2023-12-20T05:17:26;99815.19;;;4.39;100.00
64827;BME280;51265;53.972;12.286;2023-12-20T05:19:53;99802.91;;;4.42;100.00
64827;BME280;51265;53.972;12.286;2023-12-20T05:22:19;99814.09;;;4.40;100.00
64827;BME280;51265;53.972;12.286;2023-12-20T05:24:46;99807.84;;;4.35;100.00
64827;BME280;51265;53.972;12.286;2023-12-20T05:27:12;99812.44;;;4.44;100.00
64827;BME280;51265;53.972;12.286;2023-12-20T05:29:38;99806.19;;;4.44;100.00
64827;BME280;51265;53.972;12.286;2023-12-20T05:32:05;99803.72;;;4.42;100.00
64827;BME280;51265;53.972;12.286;2023-12-20T05:34:31;99796.09;;;4.34;100.00
64827;BME280;51265;53.972;12.286;2023-12-20T05:36:58;99793.88;;;4.46;100.00
64827;BME280;51265;53.972;12.286;2023-12-20T05:39:24;99781.91;;;4.42;100.00
64827;BME280;51265;53.972;12.286;2023-12-20T05:41:50;99773.75;;;4.37;100.00
64827;BME280;51265;53.972;12.286;2023-12-20T05:44:16;99772.94;;;4.37;100.00
64827;BME280;51265;53.972;12.286;2023-12-20T05:46:42;99771.00;;;4.47;100.00
64827;BME280;51265;53.972;12.286;2023-12-20T05:49:08;99771.00;;;4.42;100.00
64827;BME280;51265;53.972;12.286;2023-12-20T05:51:35;99754.63;;;4.42;100.00
64827;BME280;51265;53.972;12.286;2023-12-20T05:54:01;99764.47;;;4.43;100.00
64827;BME280;51265;53.972;12.286;2023-12-20T05:56:27;99765.53;;;4.42;100.00
64827;BME280;51265;53.972;12.286;2023-12-20T05:58:53;99755.78;;;4.36;100.00
64827;BME280;51265;53.972;12.286;2023-12-20T06:01:19;99747.03;;;4.34;100.00
64827;BME280;51265;53.972;12.286;2023-12-20T06:03:45;99754.16;;;4.35;100.00
64827;BME280;51265;53.972;12.286;2023-12-20T06:06:11;99747.31;;;4.33;100.00
64827;BME280;51265;53.972;12.286;2023-12-20T06:08:39;99749.75;;;4.34;100.00
64827;BME280;51265;53.972;12.286;2023-12-20T06:11:05;99746.22;;;4.34;100.00
64827;BME280;51265;53.972;12.286;2023-12-20T06:13:34;99735.13;;;4.20;100.00
64827;BME280;51265;53.972;12.286;2023-12-20T06:16:00;99740.00;;;4.18;100.00
64827;BME280;51265;53.972;12.286;2023-12-20T06:18:26;99739.22;;;4.22;100.00
64827;BME280;51265;53.972;12.286;2023-12-20T06:20:52;99741.41;;;4.10;100.00
64827;BME280;51265;53.972;12.286;2023-12-20T06:23:20;99737.59;;;4.11;100.00
64827;BME280;51265;53.972;12.286;2023-12-20T06:25:46;99728.03;;;4.14;100.00
64827;BME280;51265;53.972;12.286;2023-12-20T06:28:12;99725.31;;;4.19;100.00
64827;BME280;51265;53.972;12.286;2023-12-20T06:30:40;99740.00;;;4.23;100.00
64827;BME280;51265;53.972;12.286;2023-12-20T06:33:06;99736.78;;;4.11;100.00
64827;BME280;51265;53.972;12.286;2023-12-20T06:35:32;99721.50;;;4.15;100.00
64827;BME280;51265;53.972;12.286;2023-12-20T06:37:59;99713.84;;;4.17;100.00
64827;BME280;51265;53.972;12.286;2023-12-20T06:40:25;99715.47;;;4.18;100.00
64827;BME280;51265;53.972;12.286;2023-12-20T06:42:51;99719.28;;;4.22;100.00
64827;BME280;51265;53.972;12.286;2023-12-20T06:45:17;99721.47;;;4.25;100.00
64827;BME280;51265;53.972;12.286;2023-12-20T06:47:43;99721.50;;;4.15;100.00
64827;BME280;51265;53.972;12.286;2023-12-20T06:50:18;99716.56;;;4.27;100.00
64827;BME280;51265;53.972;12.286;2023-12-20T06:52:44;99715.81;;;4.11;100.00
64827;BME280;51265;53.972;12.286;2023-12-20T06:55:10;99711.94;;;4.22;100.00
64827;BME280;51265;53.972;12.286;2023-12-20T06:57:36;99724.50;;;4.13;100.00
64827;BME280;51265;53.972;12.286;2023-12-20T07:00:04;99719.91;;;4.04;100.00
64827;BME280;51265;53.972;12.286;2023-12-20T07:02:30;99717.75;;;3.95;100.00
64827;BME280;51265;53.972;12.286;2023-12-20T07:04:57;99712.28;;;4.06;100.00
64827;BME280;51265;53.972;12.286;2023-12-20T07:07:23;99715.53;;;4.08;100.00
64827;BME280;51265;53.972;12.286;2023-12-20T07:09:50;99710.09;;;4.08;100.00
64827;BME280;51265;53.972;12.286;2023-12-20T07:12:16;99711.69;;;4.14;100.00
64827;BME280;51265;53.972;12.286;2023-12-20T07:14:45;99707.91;;;4.10;100.00
64827;BME280;51265;53.972;12.286;2023-12-20T07:17:11;99694.25;;;4.15;100.00
64827;BME280;51265;53.972;12.286;2023-12-20T07:19:39;99709.81;;;4.14;100.00
64827;BME280;51265;53.972;12.286;2023-12-20T07:22:06;99700.81;;;4.09;100.00
64827;BME280;51265;53.972;12.286;2023-12-20T07:24:33;99697.25;;;4.13;100.00
64827;BME280;51265;53.972;12.286;2023-12-20T07:27:00;99700.81;;;4.09;100.00
64827;BME280;51265;53.972;12.286;2023-12-20T07:29:26;99703.78;;;4.12;100.00
64827;BME280;51265;53.972;12.286;2023-12-20T07:31:53;99707.91;;;4.05;100.00
64827;BME280;51265;53.972;12.286;2023-12-20T07:34:20;99706.28;;;4.04;100.00
64827;BME280;51265;53.972;12.286;2023-12-20T07:36:47;99698.63;;;4.11;100.00
64827;BME280;51265;53.972;12.286;2023-12-20T07:39:14;99696.69;;;4.16;100.00
64827;BME280;51265;53.972;12.286;2023-12-20T07:41:40;99703.50;;;4.14;100.00
64827;BME280;51265;53.972;12.286;2023-12-20T07:44:06;99704.34;;;4.14;100.00
64827;BME280;51265;53.972;12.286;2023-12-20T07:46:33;99697.56;;;4.07;100.00
64827;BME280;51265;53.972;12.286;2023-12-20T07:48:59;99701.06;;;4.12;100.00
64827;BME280;51265;53.972;12.286;2023-12-20T07:51:25;99697.00;;;4.10;100.00
64827;BME280;51265;53.972;12.286;2023-12-20T07:53:51;99688.84;;;4.10;100.00
64827;BME280;51265;53.972;12.286;2023-12-20T07:56:18;99702.44;;;4.15;100.00
64827;BME280;51265;53.972;12.286;2023-12-20T07:58:45;99691.56;;;4.10;100.00
64827;BME280;51265;53.972;12.286;2023-12-20T08:01:12;99697.25;;;4.13;100.00
64827;BME280;51265;53.972;12.286;2023-12-20T08:03:38;99687.16;;;4.14;100.00
64827;BME280;51265;53.972;12.286;2023-12-20T08:06:04;99689.91;;;4.09;100.00
64827;BME280;51265;53.972;12.286;2023-12-20T08:08:31;99692.09;;;4.12;100.00
64827;BME280;51265;53.972;12.286;2023-12-20T08:10:57;99691.31;;;4.06;100.00
64827;BME280;51265;53.972;12.286;2023-12-20T08:13:26;99676.31;;;4.04;100.00
64827;BME280;51265;53.972;12.286;2023-12-20T08:15:53;99685.28;;;4.09;100.00
64827;BME280;51265;53.972;12.286;2023-12-20T08:18:19;99694.53;;;4.08;100.00
64827;BME280;51265;53.972;12.286;2023-12-20T08:20:45;99680.38;;;4.11;100.00
64827;BME280;51265;53.972;12.286;2023-12-20T08:23:12;99682.03;;;4.07;100.00
64827;BME280;51265;53.972;12.286;2023-12-20T08:25:38;99687.75;;;4.06;100.00
64827;BME280;51265;53.972;12.286;2023-12-20T08:28:05;99680.63;;;4.15;100.00
64827;BME280;51265;53.972;12.286;2023-12-20T08:30:31;99677.91;;;4.15;100.00
64827;BME280;51265;53.972;12.286;2023-12-20T08:33:01;99665.63;;;4.17;100.00
64827;BME280;51265;53.972;12.286;2023-12-20T08:35:27;99666.13;;;4.24;100.00
64827;BME280;51265;53.972;12.286;2023-12-20T08:37:53;99661.72;;;4.34;100.00
64827;BME280;51265;53.972;12.286;2023-12-20T08:40:19;99659.22;;;4.42;100.00
64827;BME280;51265;53.972;12.286;2023-12-20T08:42:46;99663.81;;;4.47;100.00
64827;BME280;51265;53.972;12.286;2023-12-20T08:45:12;99667.41;;;4.42;100.00
64827;BME280;51265;53.972;12.286;2023-12-20T08:47:38;99648.59;;;4.41;100.00
64827;BME280;51265;53.972;12.286;2023-12-20T08:50:05;99657.13;;;4.29;100.00
64827;BME280;51265;53.972;12.286;2023-12-20T08:52:31;99654.97;;;4.21;100.00
64827;BME280;51265;53.972;12.286;2023-12-20T08:54:57;99641.38;;;4.16;100.00
64827;BME280;51265;53.972;12.286;2023-12-20T08:57:23;99654.78;;;4.07;100.00
64827;BME280;51265;53.972;12.286;2023-12-20T08:59:50;99660.47;;;4.11;100.00
64827;BME280;51265;53.972;12.286;2023-12-20T09:02:16;99636.50;;;4.08;100.00
64827;BME280;51265;53.972;12.286;2023-12-20T09:04:43;99630.09;;;3.78;100.00
64827;BME280;51265;53.972;12.286;2023-12-20T09:07:22;99616.50;;;3.73;100.00
64827;BME280;51265;53.972;12.286;2023-12-20T09:09:49;99625.75;;;3.72;100.00
64827;BME280;51265;53.972;12.286;2023-12-20T09:12:16;99631.72;;;3.79;100.00
64827;BME280;51265;53.972;12.286;2023-12-20T09:14:43;99624.13;;;3.71;100.00
64827;BME280;51265;53.972;12.286;2023-12-20T09:17:09;99614.34;;;3.65;100.00
64827;BME280;51265;53.972;12.286;2023-12-20T09:19:37;99608.91;;;3.65;100.00
64827;BME280;51265;53.972;12.286;2023-12-20T09:22:05;99600.72;;;3.70;100.00
64827;BME280;51265;53.972;12.286;2023-12-20T09:24:31;99601.50;;;3.81;100.00
64827;BME280;51265;53.972;12.286;2023-12-20T09:26:58;99591.41;;;3.76;100.00
64827;BME280;51265;53.972;12.286;2023-12-20T09:29:24;99600.09;;;3.88;100.00
64827;BME280;51265;53.972;12.286;2023-12-20T09:31:50;99596.50;;;3.98;100.00
64827;BME280;51265;53.972;12.286;2023-12-20T09:34:16;99605.47;;;4.04;100.00
64827;BME280;51265;53.972;12.286;2023-12-20T09:36:43;99605.41;;;4.14;100.00
64827;BME280;51265;53.972;12.286;2023-12-20T09:39:16;99602.22;;;4.02;100.00
64827;BME280;51265;53.972;12.286;2023-12-20T09:42:00;99589.94;;;4.04;100.00
64827;BME280;51265;53.972;12.286;2023-12-20T09:44:27;99581.50;;;4.06;100.00
64827;BME280;51265;53.972;12.286;2023-12-20T09:46:55;99568.09;;;4.14;100.00
64827;BME280;51265;53.972;12.286;2023-12-20T09:49:21;99578.22;;;4.04;100.00
64827;BME280;51265;53.972;12.286;2023-12-20T09:51:50;99547.09;;;4.15;100.00
64827;BME280;51265;53.972;12.286;2023-12-20T09:54:17;99540.75;;;4.24;100.00
64827;BME280;51265;53.972;12.286;2023-12-20T09:56:44;99542.66;;;4.24;100.00
64827;BME280;51265;53.972;12.286;2023-12-20T09:59:10;99538.78;;;4.35;100.00
64827;BME280;51265;53.972;12.286;2023-12-20T10:01:39;99531.16;;;4.32;100.00
64827;BME280;51265;53.972;12.286;2023-12-20T10:04:07;99525.66;;;4.37;100.00
64827;BME280;51265;53.972;12.286;2023-12-20T10:06:44;99515.38;;;4.29;100.00
64827;BME280;51265;53.972;12.286;2023-12-20T10:09:11;99502.19;;;4.41;100.00
64827;BME280;51265;53.972;12.286;2023-12-20T10:11:37;99492.34;;;4.45;100.00
64827;BME280;51265;53.972;12.286;2023-12-20T10:14:04;99494.56;;;4.38;100.00
64827;BME280;51265;53.972;12.286;2023-12-20T10:16:31;99490.22;;;4.37;100.00
64827;BME280;51265;53.972;12.286;2023-12-20T10:18:59;99479.31;;;4.37;100.00
64827;BME280;51265;53.972;12.286;2023-12-20T10:21:27;99479.31;;;4.37;100.00
64827;BME280;51265;53.972;12.286;2023-12-20T10:23:54;99477.94;;;4.40;100.00
64827;BME280;51265;53.972;12.286;2023-12-20T10:26:25;99459.13;;;4.38;100.00
64827;BME280;51265;53.972;12.286;2023-12-20T10:29:00;99450.97;;;4.38;100.00
64827;BME280;51265;53.972;12.286;2023-12-20T10:31:31;99452.63;;;4.34;100.00
64827;BME280;51265;53.972;12.286;2023-12-20T10:33:59;99445.56;;;4.33;100.00
64827;BME280;51265;53.972;12.286;2023-12-20T10:36:26;99431.69;;;4.30;100.00
64827;BME280;51265;53.972;12.286;2023-12-20T10:38:54;99427.03;;;4.30;100.00
64827;BME280;51265;53.972;12.286;2023-12-20T10:41:29;99425.38;;;4.34;100.00
64827;BME280;51265;53.972;12.286;2023-12-20T10:44:02;99423.19;;;4.36;100.00
64827;BME280;51265;53.972;12.286;2023-12-20T10:46:29;99425.81;;;4.46;100.00
64827;BME280;51265;53.972;12.286;2023-12-20T10:48:56;99426.41;;;4.38;100.00
64827;BME280;51265;53.972;12.286;2023-12-20T10:51:24;99438.97;;;4.39;100.00
64827;BME280;51265;53.972;12.286;2023-12-20T10:53:53;99430.75;;;4.44;100.00
64827;BME280;51265;53.972;12.286;2023-12-20T10:56:20;99423.66;;;4.43;100.00
64827;BME280;51265;53.972;12.286;2023-12-20T10:58:48;99433.03;;;4.32;100.00
64827;BME280;51265;53.972;12.286;2023-12-20T11:01:16;99428.72;;;4.26;100.00
64827;BME280;51265;53.972;12.286;2023-12-20T11:03:51;99425.78;;;4.17;100.00
64827;BME280;51265;53.972;12.286;2023-12-20T11:09:01;99447.53;;;4.28;100.00
64827;BME280;51265;53.972;12.286;2023-12-20T11:14:22;99457.16;;;4.15;100.00
64827;BME280;51265;53.972;12.286;2023-12-20T11:16:49;99451.66;;;4.20;100.00
64827;BME280;51265;53.972;12.286;2023-12-20T11:19:17;99448.38;;;4.23;100.00
64827;BME280;51265;53.972;12.286;2023-12-20T11:21:45;99429.31;;;4.18;100.00
64827;BME280;51265;53.972;12.286;2023-12-20T11:24:12;99450.31;;;4.17;100.00
64827;BME280;51265;53.972;12.286;2023-12-20T11:26:46;99441.34;;;4.17;100.00
64827;BME280;51265;53.972;12.286;2023-12-20T11:34:58;99441.91;;;4.14;100.00
64827;BME280;51265;53.972;12.286;2023-12-20T11:37:32;99422.88;;;4.09;100.00
64827;BME280;51265;53.972;12.286;2023-12-20T11:40:03;99431.84;;;4.09;100.00
64827;BME280;51265;53.972;12.286;2023-12-20T11:42:37;99428.94;;;4.00;100.00
64827;BME280;51265;53.972;12.286;2023-12-20T11:45:04;99424.03;;;4.03;100.00
64827;BME280;51265;53.972;12.286;2023-12-20T11:47:31;99422.97;;;3.98;100.00
64827;BME280;51265;53.972;12.286;2023-12-20T11:49:57;99423.28;;;3.92;100.00
64827;BME280;51265;53.972;12.286;2023-12-20T11:52:26;99411.53;;;3.96;100.00
64827;BME280;51265;53.972;12.286;2023-12-20T11:54:52;99406.06;;;4.02;100.00
64827;BME280;51265;53.972;12.286;2023-12-20T11:57:18;99405.47;;;4.05;100.00
64827;BME280;51265;53.972;12.286;2023-12-20T11:59:45;99390.47;;;4.07;100.00
64827;BME280;51265;53.972;12.286;2023-12-20T12:02:11;99382.38;;;3.97;100.00
64827;BME280;51265;53.972;12.286;2023-12-20T12:04:38;99378.38;;;3.84;100.00
64827;BME280;51265;53.972;12.286;2023-12-20T12:07:04;99374.59;;;3.85;100.00
64827;BME280;51265;53.972;12.286;2023-12-20T12:09:30;99389.28;;;3.84;100.00
64827;BME280;51265;53.972;12.286;2023-12-20T12:11:56;99377.00;;;3.87;100.00
64827;BME280;51265;53.972;12.286;2023-12-20T12:14:23;99377.97;;;4.01;100.00
64827;BME280;51265;53.972;12.286;2023-12-20T12:16:49;99373.94;;;3.98;100.00
64827;BME280;51265;53.972;12.286;2023-12-20T12:19:23;99359.13;;;3.75;100.00
64827;BME280;51265;53.972;12.286;2023-12-20T12:22:08;99360.97;;;3.85;100.00
64827;BME280;51265;53.972;12.286;2023-12-20T12:24:39;99373.78;;;3.85;100.00
64827;BME280;51265;53.972;12.286;2023-12-20T12:27:06;99362.44;;;3.72;100.00
64827;BME280;51265;53.972;12.286;2023-12-20T12:29:34;99362.13;;;3.74;100.00
64827;BME280;51265;53.972;12.286;2023-12-20T12:32:01;99364.56;;;3.75;100.00
64827;BME280;51265;53.972;12.286;2023-12-20T12:34:27;99362.78;;;3.95;100.00
64827;BME280;51265;53.972;12.286;2023-12-20T12:36:55;99366.41;;;3.85;100.00
64827;BME280;51265;53.972;12.286;2023-12-20T12:39:23;99359.88;;;3.86;100.00
64827;BME280;51265;53.972;12.286;2023-12-20T12:41:51;99348.97;;;3.86;100.00
64827;BME280;51265;53.972;12.286;2023-12-20T12:44:17;99358.25;;;3.80;100.00
64827;BME280;51265;53.972;12.286;2023-12-20T12:46:45;99357.44;;;3.85;100.00
64827;BME280;51265;53.972;12.286;2023-12-20T12:49:12;99353.34;;;3.82;100.00
64827;BME280;51265;53.972;12.286;2023-12-20T12:51:38;99352.19;;;3.88;100.00
64827;BME280;51265;53.972;12.286;2023-12-20T12:54:05;99356.38;;;3.81;100.00
64827;BME280;51265;53.972;12.286;2023-12-20T12:56:31;99366.44;;;3.80;100.00